sensor_id;sensor_type;location;lat;lon;timestamp;temperature;humidity
48910;DHT22;34721;51.978;7.614;2022-10-17T00:00:10;25.20;53.20
48910;DHT22;34721;51.978;7.614;2022-10-17T00:02:37;25.20;53.20
48910;DHT22;34721;51.978;7.614;2022-10-17T00:05:04;25.20;53.20
48910;DHT22;34721;51.978;7.614;2022-10-17T00:07:31;25.20;53.20
48910;DHT22;34721;51.978;7.614;2022-10-17T00:09:58;25.20;53.20
48910;DHT22;34721;51.978;7.614;2022-10-17T00:12:26;25.10;53.10
48910;DHT22;34721;51.978;7.614;2022-10-17T00:14:53;25.10;52.70
48910;DHT22;34721;51.978;7.614;2022-10-17T00:17:20;25.20;53.10
48910;DHT22;34721;51.978;7.614;2022-10-17T00:19:46;25.20;53.10
48910;DHT22;34721;51.978;7.614;2022-10-17T00:22:13;25.30;53.80
48910;DHT22;34721;51.978;7.614;2022-10-17T00:24:40;25.20;53.10
48910;DHT22;34721;51.978;7.614;2022-10-17T00:27:07;25.30;53.10
48910;DHT22;34721;51.978;7.614;2022-10-17T00:29:35;25.20;53.10
48910;DHT22;34721;51.978;7.614;2022-10-17T00:32:02;25.20;53.10
48910;DHT22;34721;51.978;7.614;2022-10-17T00:34:29;25.20;53.10
48910;DHT22;34721;51.978;7.614;2022-10-17T00:36:56;25.10;53.00
48910;DHT22;34721;51.978;7.614;2022-10-17T00:39:23;25.10;53.00
48910;DHT22;34721;51.978;7.614;2022-10-17T00:41:50;25.10;53.00
48910;DHT22;34721;51.978;7.614;2022-10-17T00:47:22;25.10;52.50
48910;DHT22;34721;51.978;7.614;2022-10-17T00:49:49;25.20;52.90
48910;DHT22;34721;51.978;7.614;2022-10-17T00:52:18;25.20;53.00
48910;DHT22;34721;51.978;7.614;2022-10-17T00:54:48;25.20;52.90
48910;DHT22;34721;51.978;7.614;2022-10-17T00:57:17;25.10;52.80
48910;DHT22;34721;51.978;7.614;2022-10-17T00:59:47;25.20;52.90
48910;DHT22;34721;51.978;7.614;2022-10-17T01:02:18;25.10;52.80
48910;DHT22;34721;51.978;7.614;2022-10-17T01:04:50;25.20;52.90
48910;DHT22;34721;51.978;7.614;2022-10-17T01:07:17;25.20;52.80
48910;DHT22;34721;51.978;7.614;2022-10-17T01:09:45;25.20;52.90
48910;DHT22;34721;51.978;7.614;2022-10-17T01:12:17;25.20;52.80
48910;DHT22;34721;51.978;7.614;2022-10-17T01:14:53;25.20;52.70
48910;DHT22;34721;51.978;7.614;2022-10-17T01:17:28;25.20;52.70
48910;DHT22;34721;51.978;7.614;2022-10-17T01:20:34;25.20;52.70
48910;DHT22;34721;51.978;7.614;2022-10-17T01:23:23;25.20;52.40
48910;DHT22;34721;51.978;7.614;2022-10-17T01:25:56;25.20;52.50
48910;DHT22;34721;51.978;7.614;2022-10-17T01:28:42;25.20;52.70
48910;DHT22;34721;51.978;7.614;2022-10-17T01:31:20;25.20;52.50
48910;DHT22;34721;51.978;7.614;2022-10-17T01:33:56;25.20;52.60
48910;DHT22;34721;51.978;7.614;2022-10-17T01:36:36;25.20;52.50
48910;DHT22;34721;51.978;7.614;2022-10-17T01:39:12;25.20;52.40
48910;DHT22;34721;51.978;7.614;2022-10-17T01:41:42;25.20;53.20
48910;DHT22;34721;51.978;7.614;2022-10-17T01:44:16;25.20;52.70
48910;DHT22;34721;51.978;7.614;2022-10-17T01:46:47;25.20;52.70
48910;DHT22;34721;51.978;7.614;2022-10-17T01:49:17;25.20;52.60
48910;DHT22;34721;51.978;7.614;2022-10-17T01:51:47;25.20;52.70
48910;DHT22;34721;51.978;7.614;2022-10-17T01:54:21;25.20;52.60
48910;DHT22;34721;51.978;7.614;2022-10-17T01:56:52;25.20;52.50
48910;DHT22;34721;51.978;7.614;2022-10-17T01:59:22;25.20;52.60
48910;DHT22;34721;51.978;7.614;2022-10-17T02:01:53;25.20;52.60
48910;DHT22;34721;51.978;7.614;2022-10-17T02:04:21;25.20;52.60
48910;DHT22;34721;51.978;7.614;2022-10-17T02:06:48;25.20;52.60
48910;DHT22;34721;51.978;7.614;2022-10-17T02:09:16;25.20;52.60
48910;DHT22;34721;51.978;7.614;2022-10-17T02:11:51;25.20;52.60
48910;DHT22;34721;51.978;7.614;2022-10-17T02:14:30;25.20;52.40
48910;DHT22;34721;51.978;7.614;2022-10-17T02:17:07;25.20;52.30
48910;DHT22;34721;51.978;7.614;2022-10-17T02:19:44;25.20;52.40
48910;DHT22;34721;51.978;7.614;2022-10-17T02:22:19;25.20;52.40
48910;DHT22;34721;51.978;7.614;2022-10-17T02:24:51;25.20;52.40
48910;DHT22;34721;51.978;7.614;2022-10-17T02:27:28;25.20;52.50
48910;DHT22;34721;51.978;7.614;2022-10-17T02:30:03;25.20;52.40
48910;DHT22;34721;51.978;7.614;2022-10-17T02:32:35;25.20;52.40
48910;DHT22;34721;51.978;7.614;2022-10-17T02:35:06;25.20;52.40
48910;DHT22;34721;51.978;7.614;2022-10-17T02:37:35;25.20;53.10
48910;DHT22;34721;51.978;7.614;2022-10-17T02:40:04;25.20;52.50
48910;DHT22;34721;51.978;7.614;2022-10-17T02:42:32;25.20;52.50
48910;DHT22;34721;51.978;7.614;2022-10-17T02:45:00;25.20;53.10
48910;DHT22;34721;51.978;7.614;2022-10-17T02:47:33;25.20;52.50
48910;DHT22;34721;51.978;7.614;2022-10-17T02:50:02;25.20;52.40
48910;DHT22;34721;51.978;7.614;2022-10-17T02:52:35;25.20;52.50
48910;DHT22;34721;51.978;7.614;2022-10-17T02:55:07;25.20;52.30
48910;DHT22;34721;51.978;7.614;2022-10-17T02:57:37;25.20;52.40
48910;DHT22;34721;51.978;7.614;2022-10-17T03:00:07;25.20;52.40
48910;DHT22;34721;51.978;7.614;2022-10-17T03:02:41;25.20;52.40
48910;DHT22;34721;51.978;7.614;2022-10-17T03:05:09;25.20;52.30
48910;DHT22;34721;51.978;7.614;2022-10-17T03:07:36;25.20;52.40
48910;DHT22;34721;51.978;7.614;2022-10-17T03:10:03;25.20;52.40
48910;DHT22;34721;51.978;7.614;2022-10-17T03:12:30;25.20;52.40
48910;DHT22;34721;51.978;7.614;2022-10-17T03:14:57;25.20;52.40
48910;DHT22;34721;51.978;7.614;2022-10-17T03:17:24;25.20;52.40
48910;DHT22;34721;51.978;7.614;2022-10-17T03:19:52;25.20;52.40
48910;DHT22;34721;51.978;7.614;2022-10-17T03:22:19;25.20;52.30
48910;DHT22;34721;51.978;7.614;2022-10-17T03:24:45;25.20;52.40
48910;DHT22;34721;51.978;7.614;2022-10-17T03:27:12;25.20;52.40
48910;DHT22;34721;51.978;7.614;2022-10-17T03:29:39;25.20;52.40
48910;DHT22;34721;51.978;7.614;2022-10-17T03:32:06;25.20;52.40
48910;DHT22;34721;51.978;7.614;2022-10-17T03:34:33;25.20;52.30
48910;DHT22;34721;51.978;7.614;2022-10-17T03:37:01;25.20;52.40
48910;DHT22;34721;51.978;7.614;2022-10-17T03:39:28;25.20;52.30
48910;DHT22;34721;51.978;7.614;2022-10-17T03:41:54;25.20;52.30
48910;DHT22;34721;51.978;7.614;2022-10-17T03:44:21;25.20;52.30
48910;DHT22;34721;51.978;7.614;2022-10-17T03:46:48;25.20;52.30
48910;DHT22;34721;51.978;7.614;2022-10-17T03:49:15;25.20;52.30
48910;DHT22;34721;51.978;7.614;2022-10-17T03:51:41;25.20;52.30
48910;DHT22;34721;51.978;7.614;2022-10-17T03:54:09;25.20;52.30
48910;DHT22;34721;51.978;7.614;2022-10-17T03:56:36;25.20;52.30
48910;DHT22;34721;51.978;7.614;2022-10-17T03:59:03;25.20;52.30
48910;DHT22;34721;51.978;7.614;2022-10-17T04:01:30;25.20;52.30
48910;DHT22;34721;51.978;7.614;2022-10-17T04:03:57;25.20;52.30
48910;DHT22;34721;51.978;7.614;2022-10-17T04:06:23;25.20;52.30
48910;DHT22;34721;51.978;7.614;2022-10-17T04:08:50;25.20;52.30
48910;DHT22;34721;51.978;7.614;2022-10-17T04:11:19;25.20;52.30
48910;DHT22;34721;51.978;7.614;2022-10-17T04:13:46;25.20;52.20
48910;DHT22;34721;51.978;7.614;2022-10-17T04:16:15;25.20;52.30
48910;DHT22;34721;51.978;7.614;2022-10-17T04:18:43;25.20;52.20
48910;DHT22;34721;51.978;7.614;2022-10-17T04:21:11;25.20;52.30
48910;DHT22;34721;51.978;7.614;2022-10-17T04:23:38;25.20;52.20
48910;DHT22;34721;51.978;7.614;2022-10-17T04:26:06;25.20;52.30
48910;DHT22;34721;51.978;7.614;2022-10-17T04:28:35;25.20;52.20
48910;DHT22;34721;51.978;7.614;2022-10-17T04:31:03;25.20;52.20
48910;DHT22;34721;51.978;7.614;2022-10-17T04:33:31;25.20;52.20
48910;DHT22;34721;51.978;7.614;2022-10-17T04:35:58;25.20;52.20
48910;DHT22;34721;51.978;7.614;2022-10-17T04:38:26;25.20;52.00
48910;DHT22;34721;51.978;7.614;2022-10-17T04:40:53;25.20;52.20
48910;DHT22;34721;51.978;7.614;2022-10-17T04:43:19;25.20;52.20
48910;DHT22;34721;51.978;7.614;2022-10-17T04:45:48;25.20;52.20
48910;DHT22;34721;51.978;7.614;2022-10-17T04:48:14;25.20;52.20
48910;DHT22;34721;51.978;7.614;2022-10-17T04:50:41;25.20;52.20
48910;DHT22;34721;51.978;7.614;2022-10-17T04:53:18;25.20;52.20
48910;DHT22;34721;51.978;7.614;2022-10-17T04:55:44;25.20;52.20
48910;DHT22;34721;51.978;7.614;2022-10-17T04:58:11;25.20;52.20
48910;DHT22;34721;51.978;7.614;2022-10-17T05:00:38;25.20;52.20
48910;DHT22;34721;51.978;7.614;2022-10-17T05:03:06;25.20;52.20
48910;DHT22;34721;51.978;7.614;2022-10-17T05:05:36;25.20;52.20
48910;DHT22;34721;51.978;7.614;2022-10-17T05:08:03;25.20;52.10
48910;DHT22;34721;51.978;7.614;2022-10-17T05:10:30;25.20;52.20
48910;DHT22;34721;51.978;7.614;2022-10-17T05:12:56;25.20;52.20
48910;DHT22;34721;51.978;7.614;2022-10-17T05:15:23;25.20;52.20
48910;DHT22;34721;51.978;7.614;2022-10-17T05:17:53;25.20;52.20
48910;DHT22;34721;51.978;7.614;2022-10-17T05:20:22;25.20;52.10
48910;DHT22;34721;51.978;7.614;2022-10-17T05:22:49;25.20;52.10
48910;DHT22;34721;51.978;7.614;2022-10-17T05:25:15;25.20;52.10
48910;DHT22;34721;51.978;7.614;2022-10-17T05:27:42;25.20;52.20
48910;DHT22;34721;51.978;7.614;2022-10-17T05:30:09;25.20;52.20
48910;DHT22;34721;51.978;7.614;2022-10-17T05:32:36;25.20;52.20
48910;DHT22;34721;51.978;7.614;2022-10-17T05:35:04;25.20;52.10
48910;DHT22;34721;51.978;7.614;2022-10-17T05:37:32;25.20;52.20
48910;DHT22;34721;51.978;7.614;2022-10-17T05:39:59;25.20;52.10
48910;DHT22;34721;51.978;7.614;2022-10-17T05:42:26;25.20;52.20
48910;DHT22;34721;51.978;7.614;2022-10-17T05:44:52;25.20;52.20
48910;DHT22;34721;51.978;7.614;2022-10-17T05:47:19;25.20;52.10
48910;DHT22;34721;51.978;7.614;2022-10-17T05:49:46;25.20;52.10
48910;DHT22;34721;51.978;7.614;2022-10-17T05:52:13;25.20;52.10
48910;DHT22;34721;51.978;7.614;2022-10-17T05:54:41;25.20;52.10
48910;DHT22;34721;51.978;7.614;2022-10-17T05:57:07;25.20;52.10
48910;DHT22;34721;51.978;7.614;2022-10-17T05:59:34;25.20;52.10
48910;DHT22;34721;51.978;7.614;2022-10-17T06:02:01;25.20;52.10
48910;DHT22;34721;51.978;7.614;2022-10-17T06:04:28;25.20;52.10
48910;DHT22;34721;51.978;7.614;2022-10-17T06:06:54;25.20;52.10
48910;DHT22;34721;51.978;7.614;2022-10-17T06:09:21;25.20;52.10
48910;DHT22;34721;51.978;7.614;2022-10-17T06:11:50;25.20;52.10
48910;DHT22;34721;51.978;7.614;2022-10-17T06:14:17;25.20;52.10
48910;DHT22;34721;51.978;7.614;2022-10-17T06:16:43;25.20;52.10
48910;DHT22;34721;51.978;7.614;2022-10-17T06:19:10;25.20;52.10
48910;DHT22;34721;51.978;7.614;2022-10-17T06:21:37;25.20;52.10
48910;DHT22;34721;51.978;7.614;2022-10-17T06:24:04;25.20;52.10
48910;DHT22;34721;51.978;7.614;2022-10-17T06:26:30;25.20;52.10
48910;DHT22;34721;51.978;7.614;2022-10-17T06:28:59;25.20;52.10
48910;DHT22;34721;51.978;7.614;2022-10-17T06:31:25;25.20;52.80
48910;DHT22;34721;51.978;7.614;2022-10-17T06:33:52;25.20;52.20
48910;DHT22;34721;51.978;7.614;2022-10-17T06:36:19;25.20;52.20
48910;DHT22;34721;51.978;7.614;2022-10-17T06:38:46;25.20;52.20
48910;DHT22;34721;51.978;7.614;2022-10-17T06:41:14;25.20;52.20
48910;DHT22;34721;51.978;7.614;2022-10-17T06:43:42;25.20;52.20
48910;DHT22;34721;51.978;7.614;2022-10-17T06:46:12;25.20;52.20
48910;DHT22;34721;51.978;7.614;2022-10-17T06:48:39;25.10;52.10
48910;DHT22;34721;51.978;7.614;2022-10-17T06:51:07;25.20;52.30
48910;DHT22;34721;51.978;7.614;2022-10-17T06:53:36;25.10;52.20
48910;DHT22;34721;51.978;7.614;2022-10-17T06:56:04;25.30;52.30
48910;DHT22;34721;51.978;7.614;2022-10-17T06:58:33;25.10;52.20
48910;DHT22;34721;51.978;7.614;2022-10-17T07:01:01;25.20;52.30
48910;DHT22;34721;51.978;7.614;2022-10-17T07:03:30;25.20;52.30
48910;DHT22;34721;51.978;7.614;2022-10-17T07:05:57;25.10;52.20
48910;DHT22;34721;51.978;7.614;2022-10-17T07:08:24;25.10;52.30
48910;DHT22;34721;51.978;7.614;2022-10-17T07:10:51;25.20;52.10
48910;DHT22;34721;51.978;7.614;2022-10-17T07:13:18;25.10;52.30
48910;DHT22;34721;51.978;7.614;2022-10-17T07:15:45;25.20;52.30
48910;DHT22;34721;51.978;7.614;2022-10-17T07:18:12;25.10;52.30
48910;DHT22;34721;51.978;7.614;2022-10-17T07:20:40;25.10;52.30
48910;DHT22;34721;51.978;7.614;2022-10-17T07:23:07;25.10;52.30
48910;DHT22;34721;51.978;7.614;2022-10-17T07:25:35;25.10;52.30
48910;DHT22;34721;51.978;7.614;2022-10-17T07:28:02;25.10;52.30
48910;DHT22;34721;51.978;7.614;2022-10-17T07:30:29;25.10;52.40
48910;DHT22;34721;51.978;7.614;2022-10-17T07:32:56;25.10;52.20
48910;DHT22;34721;51.978;7.614;2022-10-17T07:35:23;25.10;52.30
48910;DHT22;34721;51.978;7.614;2022-10-17T07:37:51;25.20;52.40
48910;DHT22;34721;51.978;7.614;2022-10-17T07:40:17;25.10;52.30
48910;DHT22;34721;51.978;7.614;2022-10-17T07:42:44;25.20;52.50
48910;DHT22;34721;51.978;7.614;2022-10-17T07:45:11;25.20;52.50
48910;DHT22;34721;51.978;7.614;2022-10-17T07:47:38;25.10;52.40
48910;DHT22;34721;51.978;7.614;2022-10-17T07:50:05;25.10;52.40
48910;DHT22;34721;51.978;7.614;2022-10-17T07:52:32;25.10;52.50
48910;DHT22;34721;51.978;7.614;2022-10-17T07:55:00;25.10;52.50
48910;DHT22;34721;51.978;7.614;2022-10-17T07:57:27;25.20;52.50
48910;DHT22;34721;51.978;7.614;2022-10-17T07:59:53;25.20;52.50
48910;DHT22;34721;51.978;7.614;2022-10-17T08:02:22;25.20;52.50
48910;DHT22;34721;51.978;7.614;2022-10-17T08:04:49;25.20;52.50
48910;DHT22;34721;51.978;7.614;2022-10-17T08:07:16;25.20;52.60
48910;DHT22;34721;51.978;7.614;2022-10-17T08:09:44;25.20;52.60
48910;DHT22;34721;51.978;7.614;2022-10-17T08:12:13;25.20;52.60
48910;DHT22;34721;51.978;7.614;2022-10-17T08:14:40;25.20;52.60
48910;DHT22;34721;51.978;7.614;2022-10-17T08:17:07;25.20;52.60
48910;DHT22;34721;51.978;7.614;2022-10-17T08:19:37;25.20;52.60
48910;DHT22;34721;51.978;7.614;2022-10-17T08:22:04;25.20;52.60
48910;DHT22;34721;51.978;7.614;2022-10-17T08:24:31;25.20;52.60
48910;DHT22;34721;51.978;7.614;2022-10-17T08:26:57;25.20;52.60
48910;DHT22;34721;51.978;7.614;2022-10-17T08:29:26;25.20;52.60
48910;DHT22;34721;51.978;7.614;2022-10-17T08:31:53;25.20;52.60
48910;DHT22;34721;51.978;7.614;2022-10-17T08:34:20;25.20;52.60
48910;DHT22;34721;51.978;7.614;2022-10-17T08:36:47;25.20;52.60
48910;DHT22;34721;51.978;7.614;2022-10-17T08:39:13;25.20;52.60
48910;DHT22;34721;51.978;7.614;2022-10-17T08:41:52;25.20;52.60
48910;DHT22;34721;51.978;7.614;2022-10-17T08:44:35;25.20;52.40
48910;DHT22;34721;51.978;7.614;2022-10-17T08:47:10;25.20;52.50
48910;DHT22;34721;51.978;7.614;2022-10-17T08:49:41;25.20;52.50
48910;DHT22;34721;51.978;7.614;2022-10-17T08:52:15;25.20;52.50
48910;DHT22;34721;51.978;7.614;2022-10-17T08:54:46;25.20;52.50
48910;DHT22;34721;51.978;7.614;2022-10-17T08:57:15;25.40;52.70
48910;DHT22;34721;51.978;7.614;2022-10-17T08:59:44;25.20;52.60
48910;DHT22;34721;51.978;7.614;2022-10-17T09:02:36;25.20;52.50
48910;DHT22;34721;51.978;7.614;2022-10-17T09:05:20;25.20;52.40
48910;DHT22;34721;51.978;7.614;2022-10-17T09:07:53;25.20;52.40
48910;DHT22;34721;51.978;7.614;2022-10-17T09:10:30;25.40;52.70
48910;DHT22;34721;51.978;7.614;2022-10-17T09:13:17;25.20;52.50
48910;DHT22;34721;51.978;7.614;2022-10-17T09:15:58;25.20;52.40
48910;DHT22;34721;51.978;7.614;2022-10-17T09:18:30;25.20;52.40
48910;DHT22;34721;51.978;7.614;2022-10-17T09:21:00;25.30;52.50
48910;DHT22;34721;51.978;7.614;2022-10-17T09:23:32;25.30;52.50
48910;DHT22;34721;51.978;7.614;2022-10-17T09:26:02;25.30;52.50
48910;DHT22;34721;51.978;7.614;2022-10-17T09:28:32;25.30;52.50
48910;DHT22;34721;51.978;7.614;2022-10-17T09:31:03;25.30;52.50
48910;DHT22;34721;51.978;7.614;2022-10-17T09:33:34;25.30;52.40
48910;DHT22;34721;51.978;7.614;2022-10-17T09:36:07;25.30;52.50
48910;DHT22;34721;51.978;7.614;2022-10-17T09:38:38;25.30;52.50
48910;DHT22;34721;51.978;7.614;2022-10-17T09:41:14;25.30;52.40
48910;DHT22;34721;51.978;7.614;2022-10-17T09:43:42;25.30;52.30
48910;DHT22;34721;51.978;7.614;2022-10-17T09:46:16;25.30;52.50
48910;DHT22;34721;51.978;7.614;2022-10-17T09:48:48;25.30;52.40
48910;DHT22;34721;51.978;7.614;2022-10-17T09:51:16;25.40;52.50
48910;DHT22;34721;51.978;7.614;2022-10-17T09:53:44;25.30;52.50
48910;DHT22;34721;51.978;7.614;2022-10-17T09:56:14;25.30;52.30
48910;DHT22;34721;51.978;7.614;2022-10-17T09:58:42;25.40;52.50
48910;DHT22;34721;51.978;7.614;2022-10-17T10:01:20;25.40;52.50
48910;DHT22;34721;51.978;7.614;2022-10-17T10:03:47;25.30;52.30
48910;DHT22;34721;51.978;7.614;2022-10-17T10:06:16;25.40;52.50
48910;DHT22;34721;51.978;7.614;2022-10-17T10:08:50;25.30;52.50
48910;DHT22;34721;51.978;7.614;2022-10-17T10:11:21;25.30;52.40
48910;DHT22;34721;51.978;7.614;2022-10-17T10:13:49;25.30;52.50
48910;DHT22;34721;51.978;7.614;2022-10-17T10:16:25;25.30;52.60
48910;DHT22;34721;51.978;7.614;2022-10-17T10:18:55;25.30;52.50
48910;DHT22;34721;51.978;7.614;2022-10-17T10:21:23;25.30;52.60
48910;DHT22;34721;51.978;7.614;2022-10-17T10:24:12;25.30;52.60
48910;DHT22;34721;51.978;7.614;2022-10-17T10:26:39;25.30;52.40
48910;DHT22;34721;51.978;7.614;2022-10-17T10:29:19;25.30;52.50
48910;DHT22;34721;51.978;7.614;2022-10-17T10:31:50;25.30;52.50
48910;DHT22;34721;51.978;7.614;2022-10-17T10:34:19;25.30;52.60
48910;DHT22;34721;51.978;7.614;2022-10-17T10:37:00;25.40;52.70
48910;DHT22;34721;51.978;7.614;2022-10-17T10:39:38;25.30;52.60
48910;DHT22;34721;51.978;7.614;2022-10-17T10:42:17;25.30;52.60
48910;DHT22;34721;51.978;7.614;2022-10-17T10:44:44;25.30;52.60
48910;DHT22;34721;51.978;7.614;2022-10-17T10:47:19;25.30;52.60
48910;DHT22;34721;51.978;7.614;2022-10-17T10:49:47;25.30;52.60
48910;DHT22;34721;51.978;7.614;2022-10-17T10:52:29;25.30;52.60
48910;DHT22;34721;51.978;7.614;2022-10-17T10:55:03;25.30;52.60
48910;DHT22;34721;51.978;7.614;2022-10-17T10:57:34;25.30;52.70
48910;DHT22;34721;51.978;7.614;2022-10-17T11:00:08;25.30;52.70
48910;DHT22;34721;51.978;7.614;2022-10-17T11:02:43;25.30;52.70
48910;DHT22;34721;51.978;7.614;2022-10-17T11:05:16;25.30;52.70
48910;DHT22;34721;51.978;7.614;2022-10-17T11:07:48;25.40;52.80
48910;DHT22;34721;51.978;7.614;2022-10-17T11:10:21;25.30;52.80
48910;DHT22;34721;51.978;7.614;2022-10-17T11:12:52;25.30;52.80
48910;DHT22;34721;51.978;7.614;2022-10-17T11:15:25;25.30;52.80
48910;DHT22;34721;51.978;7.614;2022-10-17T11:17:58;25.30;52.80
48910;DHT22;34721;51.978;7.614;2022-10-17T11:20:31;25.30;52.80
48910;DHT22;34721;51.978;7.614;2022-10-17T11:23:10;25.30;52.80
48910;DHT22;34721;51.978;7.614;2022-10-17T11:25:39;25.40;52.80
48910;DHT22;34721;51.978;7.614;2022-10-17T11:28:12;25.30;52.80
48910;DHT22;34721;51.978;7.614;2022-10-17T11:30:46;25.30;52.80
48910;DHT22;34721;51.978;7.614;2022-10-17T11:33:21;25.30;52.80
48910;DHT22;34721;51.978;7.614;2022-10-17T11:35:51;25.30;52.80
48910;DHT22;34721;51.978;7.614;2022-10-17T11:38:31;25.30;52.90
48910;DHT22;34721;51.978;7.614;2022-10-17T11:41:02;25.30;53.50
48910;DHT22;34721;51.978;7.614;2022-10-17T11:43:32;25.30;52.90
48910;DHT22;34721;51.978;7.614;2022-10-17T11:46:11;25.30;52.90
48910;DHT22;34721;51.978;7.614;2022-10-17T11:48:47;25.30;52.70
48910;DHT22;34721;51.978;7.614;2022-10-17T11:51:18;25.30;52.80
48910;DHT22;34721;51.978;7.614;2022-10-17T11:53:48;25.30;52.90
48910;DHT22;34721;51.978;7.614;2022-10-17T11:56:21;25.30;52.90
48910;DHT22;34721;51.978;7.614;2022-10-17T11:58:55;25.30;52.90
48910;DHT22;34721;51.978;7.614;2022-10-17T12:01:30;25.30;52.90
48910;DHT22;34721;51.978;7.614;2022-10-17T12:04:11;25.30;52.80
48910;DHT22;34721;51.978;7.614;2022-10-17T12:06:50;25.30;52.80
48910;DHT22;34721;51.978;7.614;2022-10-17T12:09:25;25.30;52.80
48910;DHT22;34721;51.978;7.614;2022-10-17T12:11:55;25.30;52.80
48910;DHT22;34721;51.978;7.614;2022-10-17T12:14:38;25.50;53.00
48910;DHT22;34721;51.978;7.614;2022-10-17T12:17:22;25.30;52.70
48910;DHT22;34721;51.978;7.614;2022-10-17T12:19:52;25.40;52.90
48910;DHT22;34721;51.978;7.614;2022-10-17T12:22:21;25.40;52.90
48910;DHT22;34721;51.978;7.614;2022-10-17T12:24:55;25.40;52.90
48910;DHT22;34721;51.978;7.614;2022-10-17T12:27:40;25.40;52.90
48910;DHT22;34721;51.978;7.614;2022-10-17T12:30:24;25.40;52.80
48910;DHT22;34721;51.978;7.614;2022-10-17T12:32:57;25.40;52.80
48910;DHT22;34721;51.978;7.614;2022-10-17T12:35:28;25.40;52.80
48910;DHT22;34721;51.978;7.614;2022-10-17T12:40:57;25.40;52.80
48910;DHT22;34721;51.978;7.614;2022-10-17T12:43:36;25.40;52.70
48910;DHT22;34721;51.978;7.614;2022-10-17T12:46:03;25.50;52.70
48910;DHT22;34721;51.978;7.614;2022-10-17T12:54:53;25.50;52.70
48910;DHT22;34721;51.978;7.614;2022-10-17T12:57:23;25.50;52.80
48910;DHT22;34721;51.978;7.614;2022-10-17T12:59:52;25.50;52.80
48910;DHT22;34721;51.978;7.614;2022-10-17T13:02:22;25.60;52.90
48910;DHT22;34721;51.978;7.614;2022-10-17T13:04:56;25.50;52.80
48910;DHT22;34721;51.978;7.614;2022-10-17T13:07:24;25.50;52.80
48910;DHT22;34721;51.978;7.614;2022-10-17T13:09:52;25.50;52.80
48910;DHT22;34721;51.978;7.614;2022-10-17T13:12:22;25.50;52.80
48910;DHT22;34721;51.978;7.614;2022-10-17T13:14:53;25.70;52.90
48910;DHT22;34721;51.978;7.614;2022-10-17T13:17:24;25.50;52.80
48910;DHT22;34721;51.978;7.614;2022-10-17T13:19:52;25.50;52.80
48910;DHT22;34721;51.978;7.614;2022-10-17T13:22:21;25.50;52.80
48910;DHT22;34721;51.978;7.614;2022-10-17T13:24:50;25.60;52.80
48910;DHT22;34721;51.978;7.614;2022-10-17T13:27:27;25.60;52.80
48910;DHT22;34721;51.978;7.614;2022-10-17T13:29:55;25.70;52.80
48910;DHT22;34721;51.978;7.614;2022-10-17T13:32:23;25.60;52.80
48910;DHT22;34721;51.978;7.614;2022-10-17T13:35:07;25.60;52.80
48910;DHT22;34721;51.978;7.614;2022-10-17T13:37:34;25.60;52.70
48910;DHT22;34721;51.978;7.614;2022-10-17T13:40:03;25.60;52.80
48910;DHT22;34721;51.978;7.614;2022-10-17T13:42:37;25.60;52.80
48910;DHT22;34721;51.978;7.614;2022-10-17T13:45:15;25.60;52.70
48910;DHT22;34721;51.978;7.614;2022-10-17T13:47:43;25.60;52.70
48910;DHT22;34721;51.978;7.614;2022-10-17T13:50:20;25.60;52.80
48910;DHT22;34721;51.978;7.614;2022-10-17T13:52:48;25.60;52.70
48910;DHT22;34721;51.978;7.614;2022-10-17T13:55:30;25.60;52.80
48910;DHT22;34721;51.978;7.614;2022-10-17T13:58:13;25.60;52.80
48910;DHT22;34721;51.978;7.614;2022-10-17T14:00:40;25.80;52.80
48910;DHT22;34721;51.978;7.614;2022-10-17T14:03:07;25.70;52.80
48910;DHT22;34721;51.978;7.614;2022-10-17T14:05:34;25.70;52.80
48910;DHT22;34721;51.978;7.614;2022-10-17T14:08:02;25.70;52.80
48910;DHT22;34721;51.978;7.614;2022-10-17T14:10:32;25.60;52.70
48910;DHT22;34721;51.978;7.614;2022-10-17T14:12:59;25.70;52.80
48910;DHT22;34721;51.978;7.614;2022-10-17T14:15:32;25.70;52.80
48910;DHT22;34721;51.978;7.614;2022-10-17T14:18:01;25.70;52.80
48910;DHT22;34721;51.978;7.614;2022-10-17T14:20:29;25.70;52.80
48910;DHT22;34721;51.978;7.614;2022-10-17T14:22:56;25.70;52.80
48910;DHT22;34721;51.978;7.614;2022-10-17T14:25:29;25.70;52.70
48910;DHT22;34721;51.978;7.614;2022-10-17T14:28:00;25.70;52.70
48910;DHT22;34721;51.978;7.614;2022-10-17T14:30:34;25.70;52.70
48910;DHT22;34721;51.978;7.614;2022-10-17T14:33:02;25.70;52.70
48910;DHT22;34721;51.978;7.614;2022-10-17T14:35:31;25.70;52.80
48910;DHT22;34721;51.978;7.614;2022-10-17T14:38:00;25.60;52.80
48910;DHT22;34721;51.978;7.614;2022-10-17T14:40:28;25.70;52.90
48910;DHT22;34721;51.978;7.614;2022-10-17T14:42:58;25.60;52.80
48910;DHT22;34721;51.978;7.614;2022-10-17T14:45:27;25.60;52.80
48910;DHT22;34721;51.978;7.614;2022-10-17T14:48:01;25.70;52.90
48910;DHT22;34721;51.978;7.614;2022-10-17T14:50:30;25.60;52.80
48910;DHT22;34721;51.978;7.614;2022-10-17T14:52:59;25.60;52.90
48910;DHT22;34721;51.978;7.614;2022-10-17T14:55:27;25.60;52.90
48910;DHT22;34721;51.978;7.614;2022-10-17T15:15:10;25.30;52.50
48910;DHT22;34721;51.978;7.614;2022-10-17T15:17:37;25.00;54.90
48910;DHT22;34721;51.978;7.614;2022-10-17T15:20:12;25.10;54.60
48910;DHT22;34721;51.978;7.614;2022-10-17T15:22:39;25.20;54.10
48910;DHT22;34721;51.978;7.614;2022-10-17T15:25:07;25.40;53.90
48910;DHT22;34721;51.978;7.614;2022-10-17T15:27:34;25.40;53.70
48910;DHT22;34721;51.978;7.614;2022-10-17T15:30:00;25.40;53.50
48910;DHT22;34721;51.978;7.614;2022-10-17T15:32:29;25.50;53.40
48910;DHT22;34721;51.978;7.614;2022-10-17T15:34:55;25.50;53.30
48910;DHT22;34721;51.978;7.614;2022-10-17T15:37:24;25.50;53.20
48910;DHT22;34721;51.978;7.614;2022-10-17T15:39:52;25.50;53.10
48910;DHT22;34721;51.978;7.614;2022-10-17T15:42:20;25.50;53.10
48910;DHT22;34721;51.978;7.614;2022-10-17T15:44:47;25.50;53.10
48910;DHT22;34721;51.978;7.614;2022-10-17T15:47:21;25.50;53.10
48910;DHT22;34721;51.978;7.614;2022-10-17T15:49:50;25.50;53.00
48910;DHT22;34721;51.978;7.614;2022-10-17T15:52:17;25.50;53.10
48910;DHT22;34721;51.978;7.614;2022-10-17T15:54:44;25.50;53.10
48910;DHT22;34721;51.978;7.614;2022-10-17T15:57:15;25.50;53.00
48910;DHT22;34721;51.978;7.614;2022-10-17T15:59:43;25.50;53.00
48910;DHT22;34721;51.978;7.614;2022-10-17T16:02:12;25.50;53.00
48910;DHT22;34721;51.978;7.614;2022-10-17T16:04:39;25.50;53.00
48910;DHT22;34721;51.978;7.614;2022-10-17T16:07:08;25.50;53.00
48910;DHT22;34721;51.978;7.614;2022-10-17T16:09:35;25.50;53.00
48910;DHT22;34721;51.978;7.614;2022-10-17T16:12:02;25.70;53.20
48910;DHT22;34721;51.978;7.614;2022-10-17T16:14:29;25.50;53.00
48910;DHT22;34721;51.978;7.614;2022-10-17T16:16:56;25.50;53.00